Terminal Aerodrome Forecast
Issued by NWS

Home | Current Version | Previous Version | Text Only | Print | Product List | Glossary Off
Versions: 1 2 3 4 5 6 7 8 9 10 11 12 13 14 15 16 17 18 19 20 21

000
FTUS43 KABR 211700
TAFPIR
TAF
KPIR 211728Z 2118/2218 11013KT P6SM SKC
     FM212100 23016KT P6SM SKC
     FM220300 33010KT P6SM FEW250
     FM220900 35013KT P6SM FEW250=

USA.gov is the U.S. government's official web portal to all federal, state and local government web resources and services.